Blairsville, GA

11:31 AM EST ar Chwefror 08, 2016 (GMT -0500)
Old England | | Change Station
CLOSE
Current Station
Personal Weather Stations
Location: Blairsville, GA
Elevation: 1883 ft
Nearby Weather Stations
Active Advisory: Winter Weather Advisory

Elev 1883 ft 34.90 °N, 84.03 °W | Updated 1 minute ago

Cymylog
Cymylog
41.9 °F
Feels Like 42 °F
N
2.0
Gwynt Cyfnewidiol Gwynt from Dwyrain
Gusts 9.0 mph

Heddiw
High -- | Low -- °F
--% Chance of Precip.
Yesterday
High -- | Low -- °F
Precip. -- mod
Gwasgedd 29.75 mod
Gwelededd 10.0 Milltiroedd
Clouds Clir
Oerfel Gwynt 42 °F
Gwlithbwynt 33 °F
Lleithder 70%
Rainfall 0.00 mod
Snow Depth Not available.
7:29 AM 6:11 PM
New, 0% visible
METAR KRHP 081610Z AUTO 00000KT 10SM CLR 05/M01 A2975 RMK AO2 T00501010
Gwasgedd 29.75 mod
Gwelededd 10.0 Milltiroedd
Clouds Clir
Oerfel Gwynt 42 °F
Gwlithbwynt 33 °F
Lleithder 70%
Rainfall 0.00 mod
Snow Depth Not available.
7:29 AM 6:11 PM
New, 0% visible
METAR KRHP 081610Z AUTO 00000KT 10SM CLR 05/M01 A2975 RMK AO2 T00501010

10-Day Weather Forecast

Almanac

Astronomy

Feb. 08, 2016 Rise Set
Actual Time
Civil Twilight
Nautical Twilight
Astronomical Twilight
Moon
Length Of Visible Light
Length of Day
Tomorrow will be .
, % of the Moon is Illuminated

Today's Extremes

State Highs State Lows

Community

WunderPhotos

Upload Photos

1,891,461 photos uploaded!

WunderBlog® & News

Nearby

Air Quality

  Air Quality AQ Index Pollutant
Not available.

Snow Depth

Station Depth Elevation

Earthquake Activity

City Distance Mag. Time & Date
Minimum magnitude displayed is 2.5.

Coastal Water Temperatures

Lle Tymheredd

Stations

Nearby Weather Stations

Station Location Temp Oerfel Gwynt Gwlithbwynt Lleithder Gwynt Precip. Elev Diweddarwyd Type
                   

Watches & Warnings

Winter Weather Advisory
Issued: 3:32 AM EST Feb. 8, 2016 – National Weather Service

... Winter Weather Advisory remains in effect from 7 am this
morning to 7 PM EST Tuesday...

* locations... for portions of north Georgia... mainly east and
north of a line from Ringgold to Dawsonville to Cleveland.

* Hazard types... accumulating snow and areas of black ice.

* Accumulations... 1 to 2 inches of snow with isolated higher
amounts possible at elevations above 2500 feet.

* Timing... 7 am Monday through 7 PM Tuesday for snow. Best chance
of any black ice would be Monday night and Tuesday night.

* Impacts... snow/ice on roads will create hazardous driving
conditions. Even the lower elevations of north Georgia will see
the potential for slick spots on roadways due to black ice
Monday night and Tuesday night as any lingering moisture on the
roads will re-freeze.

Precautionary/preparedness actions...

A Winter Weather Advisory for snow means that periods of snow
will cause primarily travel difficulties. Be prepared for snow
covered roads and limited visibilities... and use caution while
driving.